Rodney Mitchell — WCV8372 — position and weather

sailwx.info

Track history (hours):
 
Tides and Currents Weather Stations Pressure Air Temp Water Temp Dewpoint Dewpoint Depression Visibility Wind Speed Wind Dir Waves Ship Positions

Rodney Mitchell

Owner: VINTON CROSBY INC, GOLDEN MEADOW, LA. More information available from US FCC via Universal Licensing System and Coast Guard Vessel Documentation Center.

Last reported at 2015-May-29 17:11 UTC. Time now 2015-May-29 18:27 UTC.
Position N 28°57' W 095°18'.

; draft 3 m.

Type: Towing. MMSI: 367028860.

Date/timePositionNaut miles runAvg speedWind from/ knotsBaromVisibWave heightAir tempDewpointWater temp
2015-May-29 17:11N 28°57' W 095°18'4 4.4
2015-May-29 16:17N 29°01' W 095°15'4 5.3
2015-May-29 15:32N 29°04' W 095°13'30 0.7
2015-May-27 22:29N 29°23' W 094°46'5 4.0
2015-May-27 21:13N 29°27' W 094°50'4 5.3
2015-May-27 20:32N 29°30' W 094°52'5 5.3
2015-May-27 19:33N 29°34' W 094°56'6 6.0
2015-May-27 18:33N 29°40' W 094°58'6 5.5
2015-May-27 17:33N 29°44' W 095°02'3 3.4
2015-May-27 16:33N 29°47' W 095°05'0 0.0
2015-May-27 15:34N 29°47' W 095°05'0 0.0
2015-May-27 14:24N 29°47' W 095°05'0 0.0
2015-May-27 13:33N 29°47' W 095°05'0 0.0
2015-May-27 12:33N 29°47' W 095°05'0 0.0
2015-May-27 11:33N 29°47' W 095°05'0 0.0
2015-May-27 10:33N 29°47' W 095°05'0 0.0
2015-May-27 09:33N 29°47' W 095°05'0 0.0
2015-May-27 08:33N 29°47' W 095°05'0 0.0
2015-May-27 07:33N 29°47' W 095°05'0 0.0
2015-May-27 06:33N 29°47' W 095°05'0 0.0
2015-May-27 05:33N 29°47' W 095°05'0 0.0
2015-May-27 04:33N 29°47' W 095°05'0 0.0
2015-May-27 03:33N 29°47' W 095°05'0 0.0
2015-May-27 02:34N 29°47' W 095°05'0 0.0
2015-May-27 01:33N 29°47' W 095°05'0 0.0
2015-May-27 00:33N 29°47' W 095°05'0 0.0
2015-May-26 23:34N 29°47' W 095°05'0 0.0
2015-May-26 22:34N 29°47' W 095°05'0 0.0
2015-May-26 21:33N 29°47' W 095°05'1 1.1
2015-May-26 20:33N 29°48' W 095°04'0 0.0
2015-May-26 19:33N 29°48' W 095°04'0 0.0
2015-May-26 18:33N 29°48' W 095°04'0 0.0
2015-May-26 17:33N 29°48' W 095°04'0 0.0
2015-May-26 16:33N 29°48' W 095°04'0 0.0
2015-May-26 15:33N 29°48' W 095°04'0 0.0
2015-May-26 14:33N 29°48' W 095°04'0 0.0
2015-May-26 13:34N 29°48' W 095°04'0 0.0
2015-May-26 12:33N 29°48' W 095°04'0 0.0
2015-May-26 11:33N 29°48' W 095°04'0 0.0
2015-May-26 10:33N 29°48' W 095°04'0 0.0
2015-May-26 09:33N 29°48' W 095°04'0 0.0
2015-May-26 08:32N 29°48' W 095°04'0 0.0
2015-May-26 07:33N 29°48' W 095°04'0 0.0
2015-May-26 06:32N 29°48' W 095°04'0 0.0
2015-May-26 05:33N 29°48' W 095°04'0 0.0
2015-May-26 04:32N 29°48' W 095°04'0 0.0
2015-May-26 03:33N 29°48' W 095°04'0 0.0
2015-May-26 02:29N 29°48' W 095°04'0 0.0
2015-May-26 01:33N 29°48' W 095°04'0 0.0
2015-May-26 00:33N 29°48' W 095°04'2 1.9
2015-May-25 23:34N 29°46' W 095°05'1 0.6
2015-May-25 21:32N 29°47' W 095°06'1 1.2
2015-May-25 20:33N 29°46' W 095°05'1 0.8
2015-May-25 19:33N 29°47' W 095°05'4 3.8
2015-May-25 18:34N 29°44' W 095°08'4 3.9
2015-May-25 17:33N 29°45' W 095°12'0 0.0
2015-May-25 16:34N 29°45' W 095°12'0 0.0
2015-May-25 15:33N 29°45' W 095°12'0 0.0
2015-May-25 14:33N 29°45' W 095°12'0 0.0
2015-May-25 13:34N 29°45' W 095°12'0 0.0
2015-May-25 12:33N 29°45' W 095°12'0 0.0
2015-May-25 11:33N 29°45' W 095°12'0 0.0
2015-May-25 10:33N 29°45' W 095°12'0 0.0
2015-May-25 09:33N 29°45' W 095°12'0 0.0
2015-May-25 08:34N 29°45' W 095°12'0 0.0
2015-May-25 07:33N 29°45' W 095°12'0 0.0
2015-May-25 06:33N 29°45' W 095°12'0 0.0
2015-May-25 05:33N 29°45' W 095°12'0 0.0
2015-May-25 04:33N 29°45' W 095°12'0 0.0
2015-May-25 03:33N 29°45' W 095°12'0 0.0
2015-May-25 02:33N 29°45' W 095°12'0 0.0
2015-May-25 01:33N 29°45' W 095°12'0 0.0
2015-May-25 00:33N 29°45' W 095°12'0 0.0
2015-May-24 23:33N 29°45' W 095°12'0 0.0
2015-May-24 22:34N 29°45' W 095°12'0 0.0
2015-May-24 21:33N 29°45' W 095°12'0 0.0
2015-May-24 20:33N 29°45' W 095°12'0 0.0
2015-May-24 19:34N 29°45' W 095°12'0 0.0
2015-May-24 18:33N 29°45' W 095°12'0 0.0
2015-May-24 17:33N 29°45' W 095°12'0 0.0
2015-May-24 16:33N 29°45' W 095°12'0 0.0
2015-May-24 15:33N 29°45' W 095°12'0 0.0
2015-May-24 14:33N 29°45' W 095°12'0 0.0
2015-May-24 13:34N 29°45' W 095°12'0 0.0
2015-May-24 12:33N 29°45' W 095°12'0 0.0
2015-May-24 11:33N 29°45' W 095°12'0 0.0
2015-May-24 10:33N 29°45' W 095°12'0 0.0
2015-May-24 09:34N 29°45' W 095°12'0 0.0
2015-May-24 08:33N 29°45' W 095°12'2 1.8
2015-May-24 07:33N 29°45' W 095°10'4 4.3
2015-May-24 06:33N 29°46' W 095°05'4 4.4
2015-May-24 05:33N 29°43' W 095°01'4 4.3
2015-May-24 04:34N 29°40' W 094°58'5 4.6
2015-May-24 03:33N 29°35' W 094°56'5 4.6
2015-May-24 02:33N 29°32' W 094°53'5 4.6
2015-May-24 01:32N 29°27' W 094°51'5 4.5
2015-May-24 00:25N 29°23' W 094°48'  
Track history (hours):
 
Tides and Currents Weather Stations Pressure Air Temp Water Temp Dewpoint Dewpoint Depression Visibility Wind Speed Wind Dir Waves Ship Positions

Rodney Mitchell

Owner: VINTON CROSBY INC, GOLDEN MEADOW, LA. More information available from US FCC via Universal Licensing System and Coast Guard Vessel Documentation Center.

Last reported at 2015-May-29 17:11 UTC. Time now 2015-May-29 18:27 UTC.
Position N 28°57' W 095°18'.

; draft 3 m.

Type: Towing. MMSI: 367028860.

Date/timePositionNaut miles runAvg speedWind from/ knotsBaromVisibWave heightAir tempDewpointWater temp
2015-May-29 17:11N 28°57' W 095°18'4 4.4
2015-May-29 16:17N 29°01' W 095°15'4 5.3
2015-May-29 15:32N 29°04' W 095°13'30 0.7
2015-May-27 22:29N 29°23' W 094°46'5 4.0
2015-May-27 21:13N 29°27' W 094°50'4 5.3
2015-May-27 20:32N 29°30' W 094°52'5 5.3
2015-May-27 19:33N 29°34' W 094°56'6 6.0
2015-May-27 18:33N 29°40' W 094°58'6 5.5
2015-May-27 17:33N 29°44' W 095°02'3 3.4
2015-May-27 16:33N 29°47' W 095°05'0 0.0
2015-May-27 15:34N 29°47' W 095°05'0 0.0
2015-May-27 14:24N 29°47' W 095°05'0 0.0
2015-May-27 13:33N 29°47' W 095°05'0 0.0
2015-May-27 12:33N 29°47' W 095°05'0 0.0
2015-May-27 11:33N 29°47' W 095°05'0 0.0
2015-May-27 10:33N 29°47' W 095°05'0 0.0
2015-May-27 09:33N 29°47' W 095°05'0 0.0
2015-May-27 08:33N 29°47' W 095°05'0 0.0
2015-May-27 07:33N 29°47' W 095°05'0 0.0
2015-May-27 06:33N 29°47' W 095°05'0 0.0
2015-May-27 05:33N 29°47' W 095°05'0 0.0
2015-May-27 04:33N 29°47' W 095°05'0 0.0
2015-May-27 03:33N 29°47' W 095°05'0 0.0
2015-May-27 02:34N 29°47' W 095°05'0 0.0
2015-May-27 01:33N 29°47' W 095°05'0 0.0
2015-May-27 00:33N 29°47' W 095°05'0 0.0
2015-May-26 23:34N 29°47' W 095°05'0 0.0
2015-May-26 22:34N 29°47' W 095°05'0 0.0
2015-May-26 21:33N 29°47' W 095°05'1 1.1
2015-May-26 20:33N 29°48' W 095°04'0 0.0
2015-May-26 19:33N 29°48' W 095°04'0 0.0
2015-May-26 18:33N 29°48' W 095°04'0 0.0
2015-May-26 17:33N 29°48' W 095°04'0 0.0
2015-May-26 16:33N 29°48' W 095°04'0 0.0
2015-May-26 15:33N 29°48' W 095°04'0 0.0
2015-May-26 14:33N 29°48' W 095°04'0 0.0
2015-May-26 13:34N 29°48' W 095°04'0 0.0
2015-May-26 12:33N 29°48' W 095°04'0 0.0
2015-May-26 11:33N 29°48' W 095°04'0 0.0
2015-May-26 10:33N 29°48' W 095°04'0 0.0
2015-May-26 09:33N 29°48' W 095°04'0 0.0
2015-May-26 08:32N 29°48' W 095°04'0 0.0
2015-May-26 07:33N 29°48' W 095°04'0 0.0
2015-May-26 06:32N 29°48' W 095°04'0 0.0
2015-May-26 05:33N 29°48' W 095°04'0 0.0
2015-May-26 04:32N 29°48' W 095°04'0 0.0
2015-May-26 03:33N 29°48' W 095°04'0 0.0
2015-May-26 02:29N 29°48' W 095°04'0 0.0
2015-May-26 01:33N 29°48' W 095°04'0 0.0
2015-May-26 00:33N 29°48' W 095°04'2 1.9
2015-May-25 23:34N 29°46' W 095°05'1 0.6
2015-May-25 21:32N 29°47' W 095°06'1 1.2
2015-May-25 20:33N 29°46' W 095°05'1 0.8
2015-May-25 19:33N 29°47' W 095°05'4 3.8
2015-May-25 18:34N 29°44' W 095°08'4 3.9
2015-May-25 17:33N 29°45' W 095°12'0 0.0
2015-May-25 16:34N 29°45' W 095°12'0 0.0
2015-May-25 15:33N 29°45' W 095°12'0 0.0
2015-May-25 14:33N 29°45' W 095°12'0 0.0
2015-May-25 13:34N 29°45' W 095°12'0 0.0
2015-May-25 12:33N 29°45' W 095°12'0 0.0
2015-May-25 11:33N 29°45' W 095°12'0 0.0
2015-May-25 10:33N 29°45' W 095°12'0 0.0
2015-May-25 09:33N 29°45' W 095°12'0 0.0
2015-May-25 08:34N 29°45' W 095°12'0 0.0
2015-May-25 07:33N 29°45' W 095°12'0 0.0
2015-May-25 06:33N 29°45' W 095°12'0 0.0
2015-May-25 05:33N 29°45' W 095°12'0 0.0
2015-May-25 04:33N 29°45' W 095°12'0 0.0
2015-May-25 03:33N 29°45' W 095°12'0 0.0
2015-May-25 02:33N 29°45' W 095°12'0 0.0
2015-May-25 01:33N 29°45' W 095°12'0 0.0
2015-May-25 00:33N 29°45' W 095°12'0 0.0
2015-May-24 23:33N 29°45' W 095°12'0 0.0
2015-May-24 22:34N 29°45' W 095°12'0 0.0
2015-May-24 21:33N 29°45' W 095°12'0 0.0
2015-May-24 20:33N 29°45' W 095°12'0 0.0
2015-May-24 19:34N 29°45' W 095°12'0 0.0
2015-May-24 18:33N 29°45' W 095°12'0 0.0
2015-May-24 17:33N 29°45' W 095°12'0 0.0
2015-May-24 16:33N 29°45' W 095°12'0 0.0
2015-May-24 15:33N 29°45' W 095°12'0 0.0
2015-May-24 14:33N 29°45' W 095°12'0 0.0
2015-May-24 13:34N 29°45' W 095°12'0 0.0
2015-May-24 12:33N 29°45' W 095°12'0 0.0
2015-May-24 11:33N 29°45' W 095°12'0 0.0
2015-May-24 10:33N 29°45' W 095°12'0 0.0
2015-May-24 09:34N 29°45' W 095°12'0 0.0
2015-May-24 08:33N 29°45' W 095°12'2 1.8
2015-May-24 07:33N 29°45' W 095°10'4 4.3
2015-May-24 06:33N 29°46' W 095°05'4 4.4
2015-May-24 05:33N 29°43' W 095°01'4 4.3
2015-May-24 04:34N 29°40' W 094°58'5 4.6
2015-May-24 03:33N 29°35' W 094°56'5 4.6
2015-May-24 02:33N 29°32' W 094°53'5 4.6
2015-May-24 01:32N 29°27' W 094°51'5 4.5
2015-May-24 00:25N 29°23' W 094°48'  

Dump ship's entire track history